Time;durP1;ratioP1;P1;durP2;ratioP2;P2;SDS_P1;SDS_P2;PMS_P1;PMS_P2;Temp;Humidity;BMP_temperature;BMP_pressure;BME280_temperature;BME280_humidity;BME280_pressure;Samples;Min_cycle;Max_cycle;Signal;HPM_P1;HPM_P2
2022/04/28 00:01:28;;;;;;;9.23;5.75;;;;;;;;;;5123827;27;20055;-84
2022/04/28 00:03:57;;;;;;;8.57;6.05;;;;;;;;;;5136849;27;20003;-83
2022/04/28 00:06:22;;;;;;;10.20;6.22;;;;;;;;;;5125609;27;20027;-84
2022/04/28 00:09:02;;;;;;;8.48;5.45;;;;;;;;;;5138410;27;20019;-83
2022/04/28 00:11:54;;;;;;;10.90;6.45;;;;;;;;;;5136661;27;20100;-83
2022/04/28 00:14:22;;;;;;;10.23;6.93;;;;;;;;;;5132962;27;20125;-85
2022/04/28 00:16:48;;;;;;;8.15;5.88;;;;;;;;;;5137610;27;20437;-85
2022/04/28 00:19:13;;;;;;;10.65;6.78;;;;;;;;;;5137069;27;20031;-83
2022/04/28 00:22:16;;;;;;;9.55;5.75;;;;;;;;;;5104765;27;20380;-85
2022/04/28 00:24:42;;;;;;;9.63;5.70;;;;;;;;;;5116133;27;20043;-83
2022/04/28 00:27:10;;;;;;;8.38;5.68;;;;;;;;;;5136742;27;20023;-83
2022/04/28 00:29:36;;;;;;;8.70;5.53;;;;;;;;;;5134908;27;20456;-85
2022/04/28 00:32:02;;;;;;;7.93;5.22;;;;;;;;;;5117931;27;20126;-86
2022/04/28 00:34:27;;;;;;;10.50;5.43;;;;;;;;;;5135500;27;20038;-86
2022/04/28 00:37:38;;;;;;;6.35;4.07;;;;;;;;;;5134983;27;20043;-85
2022/04/28 00:40:09;;;;;;;;;;;;;;;;;;5136493;27;20027;-85
2022/04/28 00:52:19;;;;;;;4.45;3.80;;;;;;;;;;5144267;22;20116;-85
2022/04/28 00:54:44;;;;;;;6.50;3.58;;;;;;;;;;5135673;27;20360;-84
2022/04/28 00:57:10;;;;;;;3.15;2.58;;;;;;;;;;5117698;27;20023;-85
2022/04/28 00:59:44;;;;;;;4.55;2.60;;;;;;;;;;5118508;28;20027;-83
2022/04/28 01:02:10;;;;;;;8.63;2.40;;;;;;;;;;5119846;27;20030;-85
2022/04/28 01:04:38;;;;;;;3.88;2.63;;;;;;;;;;5107459;28;20096;-84
2022/04/28 01:07:26;;;;;;;3.58;2.50;;;;;;;;;;5080996;28;20533;-86
2022/04/28 01:09:52;;;;;;;3.15;2.35;;;;;;;;;;5114361;28;20023;-84
2022/04/28 01:12:29;;;;;;;3.10;2.35;;;;;;;;;;5098363;28;20049;-84
2022/04/28 01:14:55;;;;;;;3.33;2.40;;;;;;;;;;5098075;28;20081;-84
2022/04/28 01:17:21;;;;;;;4.53;2.10;;;;;;;;;;5080957;28;20024;-83
2022/04/28 01:19:53;;;;;;;4.72;2.00;;;;;;;;;;5097478;28;20092;-86
2022/04/28 01:23:18;;;;;;;2.88;2.00;;;;;;;;;;5115402;28;20039;-84
2022/04/28 01:25:41;;;;;;;2.25;1.65;;;;;;;;;;5122474;28;20035;-86
2022/04/28 01:28:07;;;;;;;3.03;1.42;;;;;;;;;;5097296;28;20027;-86
2022/04/28 01:30:39;;;;;;;2.25;1.27;;;;;;;;;;5115467;28;20051;-84
2022/04/28 01:33:10;;;;;;;1.40;1.25;;;;;;;;;;5114177;28;20035;-83
2022/04/28 01:35:35;;;;;;;1.77;1.05;;;;;;;;;;5114690;28;20468;-84
2022/04/28 01:38:01;;;;;;;1.83;1.30;;;;;;;;;;5114185;28;20031;-83
2022/04/28 01:40:28;;;;;;;1.95;1.33;;;;;;;;;;5096751;28;20118;-86
2022/04/28 01:42:54;;;;;;;4.25;1.30;;;;;;;;;;5119848;28;20031;-82
2022/04/28 01:45:37;;;;;;;1.38;1.25;;;;;;;;;;5118542;28;20034;-84
2022/04/28 01:48:06;;;;;;;2.15;1.10;;;;;;;;;;5115918;28;20028;-85
2022/04/28 01:50:31;;;;;;;1.40;1.17;;;;;;;;;;5116888;28;20070;-84
2022/04/28 01:56:12;;;;;;;2.45;1.23;;;;;;;;;;5061011;28;20056;-85
2022/04/28 01:58:38;;;;;;;4.65;1.27;;;;;;;;;;5056393;28;20036;-83
2022/04/28 02:01:32;;;;;;;1.55;1.17;;;;;;;;;;5054834;28;20377;-85
2022/04/28 02:04:15;;;;;;;4.68;1.23;;;;;;;;;;5081258;28;20021;-83
2022/04/28 02:06:46;;;;;;;2.42;1.17;;;;;;;;;;5075715;28;20044;-82
2022/04/28 02:09:12;;;;;;;1.40;1.10;;;;;;;;;;5076097;28;20473;-83
2022/04/28 02:11:38;;;;;;;1.48;1.38;;;;;;;;;;5074804;28;20036;-84
2022/04/28 02:14:20;;;;;;;1.83;1.40;;;;;;;;;;5074564;28;20042;-82
2022/04/28 02:16:46;;;;;;;2.88;1.45;;;;;;;;;;5101684;28;20371;-84
2022/04/28 02:19:11;;;;;;;3.28;0.85;;;;;;;;;;5116749;28;20119;-84
2022/04/28 02:21:37;;;;;;;1.35;1.25;;;;;;;;;;5117074;28;20020;-85
2022/04/28 02:24:12;;;;;;;1.25;1.13;;;;;;;;;;5112414;28;20039;-81
2022/04/28 02:26:37;;;;;;;2.08;1.30;;;;;;;;;;5116919;28;20084;-83
2022/04/28 02:29:19;;;;;;;3.58;1.20;;;;;;;;;;5082740;28;20024;-84
2022/04/28 02:31:45;;;;;;;2.92;1.20;;;;;;;;;;5100334;28;20364;-82
2022/04/28 02:34:11;;;;;;;1.83;1.30;;;;;;;;;;5099260;28;20106;-83
2022/04/28 02:36:36;;;;;;;3.50;1.20;;;;;;;;;;5082028;28;20059;-82
2022/04/28 02:39:02;;;;;;;2.53;1.30;;;;;;;;;;5082461;28;20027;-82
2022/04/28 02:41:28;;;;;;;3.03;1.60;;;;;;;;;;5099131;28;20134;-81
2022/04/28 02:43:56;;;;;;;3.63;1.42;;;;;;;;;;5128570;27;20028;-82
2022/04/28 02:46:21;;;;;;;1.63;1.30;;;;;;;;;;5085967;28;20334;-83
2022/04/28 02:48:47;;;;;;;1.38;1.25;;;;;;;;;;5098983;28;20123;-83
2022/04/28 02:51:13;;;;;;;2.10;1.63;;;;;;;;;;5098809;28;20365;-82
2022/04/28 02:53:38;;;;;;;4.30;1.40;;;;;;;;;;5116540;28;20127;-82
2022/04/28 02:56:04;;;;;;;1.83;1.48;;;;;;;;;;5115952;28;20027;-83
2022/04/28 02:58:34;;;;;;;1.67;1.45;;;;;;;;;;5098903;28;20031;-82
2022/04/28 03:01:01;;;;;;;2.00;1.13;;;;;;;;;;5099158;28;20034;-83
2022/04/28 03:03:27;;;;;;;3.10;1.77;;;;;;;;;;5088261;28;20035;-83
2022/04/28 03:11:35;;;;;;;2.92;1.40;;;;;;;;;;5115739;28;20046;-83
2022/04/28 03:14:01;;;;;;;6.82;1.50;;;;;;;;;;5098786;28;20039;-83
2022/04/28 03:16:26;;;;;;;2.35;1.50;;;;;;;;;;5116196;28;20369;-82
2022/04/28 03:18:55;;;;;;;1.65;1.50;;;;;;;;;;5116885;28;20110;-82
2022/04/28 03:21:21;;;;;;;2.22;1.10;;;;;;;;;;5120186;28;20031;-83
2022/04/28 03:23:46;;;;;;;2.70;1.60;;;;;;;;;;5089795;28;20020;-83
2022/04/28 03:26:12;;;;;;;2.00;1.67;;;;;;;;;;5117027;28;20020;-82
2022/04/28 03:28:38;;;;;;;1.50;1.30;;;;;;;;;;5116797;28;20106;-84
2022/04/28 03:31:04;;;;;;;1.30;1.20;;;;;;;;;;5117897;28;20024;-84
2022/04/28 03:33:29;;;;;;;1.65;1.20;;;;;;;;;;5125722;28;20051;-83
2022/04/28 03:35:58;;;;;;;2.05;1.55;;;;;;;;;;5128703;28;20008;-85
2022/04/28 03:38:27;;;;;;;1.67;1.38;;;;;;;;;;5136221;28;20035;-84
2022/04/28 03:41:01;;;;;;;4.75;1.48;;;;;;;;;;5137997;28;20028;-82
2022/04/28 03:43:36;;;;;;;2.15;1.50;;;;;;;;;;5118942;28;20026;-83
2022/04/28 03:46:01;;;;;;;4.15;1.45;;;;;;;;;;5113562;28;20039;-84
2022/04/28 03:51:51;;;;;;;1.65;1.38;;;;;;;;;;5077775;28;20473;-84
2022/04/28 03:55:00;;;;;;;2.20;1.58;;;;;;;;;;5116306;28;20028;-83
2022/04/28 03:57:26;;;;;;;2.57;1.53;;;;;;;;;;5033733;28;20131;-83
2022/04/28 04:00:15;;;;;;;4.30;1.92;;;;;;;;;;5017224;28;20128;-85
2022/04/28 04:05:45;;;;;;;4.07;1.70;;;;;;;;;;5126233;22;20086;-83
2022/04/28 04:08:37;;;;;;;3.55;1.60;;;;;;;;;;5060567;28;20032;-83
2022/04/28 04:11:03;;;;;;;4.32;1.33;;;;;;;;;;5074804;28;20020;-78
2022/04/28 04:13:28;;;;;;;4.55;1.95;;;;;;;;;;5074841;28;20150;-78
2022/04/28 04:15:53;;;;;;;2.28;1.33;;;;;;;;;;5074820;28;20036;-79
2022/04/28 04:18:19;;;;;;;3.20;2.00;;;;;;;;;;5075965;28;20043;-80
2022/04/28 04:20:44;;;;;;;3.67;1.60;;;;;;;;;;5074757;28;20036;-78
2022/04/28 04:23:10;;;;;;;6.13;1.45;;;;;;;;;;5084707;28;20080;-79
2022/04/28 04:25:35;;;;;;;3.58;1.80;;;;;;;;;;5075186;28;20104;-78
2022/04/28 04:28:01;;;;;;;7.63;1.70;;;;;;;;;;5073971;28;20028;-80
2022/04/28 04:33:11;;;;;;;3.30;1.50;;;;;;;;;;5087759;28;20113;-80
2022/04/28 04:35:36;;;;;;;3.35;2.10;;;;;;;;;;5073562;28;20442;-81
2022/04/28 04:38:02;;;;;;;5.43;2.00;;;;;;;;;;5073761;28;20021;-79
2022/04/28 04:40:27;;;;;;;6.78;2.45;;;;;;;;;;5090655;28;20024;-79
2022/04/28 04:42:54;;;;;;;3.88;2.28;;;;;;;;;;5080625;28;20034;-79
2022/04/28 04:45:20;;;;;;;5.18;2.25;;;;;;;;;;5077671;28;20020;-78
2022/04/28 04:47:46;;;;;;;3.65;2.28;;;;;;;;;;5072199;28;20025;-80
2022/04/28 04:50:11;;;;;;;4.20;2.05;;;;;;;;;;5074612;28;20513;-81
2022/04/28 04:52:37;;;;;;;5.32;2.47;;;;;;;;;;5074678;28;20109;-80
2022/04/28 04:55:02;;;;;;;3.85;2.28;;;;;;;;;;5067035;28;20029;-81
2022/04/28 04:57:28;;;;;;;4.82;2.00;;;;;;;;;;5068959;28;20389;-79
2022/04/28 04:59:53;;;;;;;7.60;2.17;;;;;;;;;;5060798;28;20110;-79
2022/04/28 05:02:45;;;;;;;10.02;2.15;;;;;;;;;;5075448;28;20032;-79
2022/04/28 05:05:15;;;;;;;11.88;2.00;;;;;;;;;;5075980;28;20040;-82
2022/04/28 05:07:41;;;;;;;3.08;1.80;;;;;;;;;;5067908;28;20055;-80
2022/04/28 05:10:07;;;;;;;3.78;1.90;;;;;;;;;;5068181;28;20457;-80
2022/04/28 05:12:33;;;;;;;4.18;2.10;;;;;;;;;;5080008;28;20028;-80
2022/04/28 05:14:58;;;;;;;3.25;2.20;;;;;;;;;;5071588;28;20028;-82
2022/04/28 05:17:24;;;;;;;5.75;2.83;;;;;;;;;;5065656;28;20047;-80
2022/04/28 05:19:50;;;;;;;8.23;3.65;;;;;;;;;;5067968;28;20020;-78
2022/04/28 05:22:15;;;;;;;8.18;3.90;;;;;;;;;;5068254;28;20033;-79
2022/04/28 05:24:41;;;;;;;29.42;10.95;;;;;;;;;;5072415;28;20024;-80
2022/04/28 05:27:07;;;;;;;40.50;18.90;;;;;;;;;;5069567;28;20399;-77
2022/04/28 05:29:32;;;;;;;18.77;8.77;;;;;;;;;;5047970;28;20630;-78
2022/04/28 05:32:00;;;;;;;8.70;4.85;;;;;;;;;;5050759;28;20064;-79
2022/04/28 05:34:26;;;;;;;15.23;5.43;;;;;;;;;;5051551;28;20025;-80
2022/04/28 05:36:51;;;;;;;12.80;5.82;;;;;;;;;;5067943;28;20039;-79
2022/04/28 05:39:17;;;;;;;15.07;6.72;;;;;;;;;;5072949;28;20135;-80
2022/04/28 05:41:43;;;;;;;10.45;5.85;;;;;;;;;;5076097;28;20029;-80
2022/04/28 05:46:52;;;;;;;16.65;6.60;;;;;;;;;;5072801;28;20048;-86
2022/04/28 05:49:18;;;;;;;13.90;6.55;;;;;;;;;;5064459;28;20032;-86
2022/04/28 05:51:44;;;;;;;12.50;5.88;;;;;;;;;;5077518;28;20039;-81
2022/04/28 05:54:10;;;;;;;10.40;5.70;;;;;;;;;;5067117;28;20044;-84
2022/04/28 05:56:42;;;;;;;15.10;7.03;;;;;;;;;;5074282;28;20111;-81
2022/04/28 05:59:10;;;;;;;10.35;5.78;;;;;;;;;;5077702;28;20036;-83
2022/04/28 06:01:36;;;;;;;49.22;22.08;;;;;;;;;;5048796;28;20112;-80
2022/04/28 06:04:02;;;;;;;16.63;8.55;;;;;;;;;;5062784;28;20099;-83
2022/04/28 06:06:28;;;;;;;22.42;10.43;;;;;;;;;;5061478;28;20092;-81
2022/04/28 06:08:53;;;;;;;16.63;6.25;;;;;;;;;;5064878;28;20037;-78
2022/04/28 06:11:19;;;;;;;31.60;14.45;;;;;;;;;;5071545;28;20089;-77
2022/04/28 06:13:45;;;;;;;13.30;6.97;;;;;;;;;;5073923;28;20035;-76
2022/04/28 06:16:10;;;;;;;23.75;12.52;;;;;;;;;;5090145;28;20036;-77
2022/04/28 06:18:49;;;;;;;22.73;11.07;;;;;;;;;;5089643;28;20037;-79
2022/04/28 06:21:15;;;;;;;21.40;11.63;;;;;;;;;;5074112;28;20094;-80
2022/04/28 06:23:41;;;;;;;16.80;7.93;;;;;;;;;;5083760;28;20270;-83
2022/04/28 06:26:06;;;;;;;23.95;12.38;;;;;;;;;;5079788;28;20032;-82
2022/04/28 06:31:21;;;;;;;13.05;7.10;;;;;;;;;;5061101;28;20044;-79
2022/04/28 06:33:47;;;;;;;28.10;14.68;;;;;;;;;;5075508;28;20032;-81
2022/04/28 06:36:13;;;;;;;18.77;10.27;;;;;;;;;;5076896;28;20033;-84
2022/04/28 06:38:42;;;;;;;21.10;10.82;;;;;;;;;;5076977;28;20050;-81
2022/04/28 06:41:10;;;;;;;18.45;8.73;;;;;;;;;;5073161;28;20024;-80
2022/04/28 06:43:37;;;;;;;13.75;6.55;;;;;;;;;;5093467;28;20033;-78
2022/04/28 06:46:12;;;;;;;11.75;5.47;;;;;;;;;;5081927;28;20021;-87
2022/04/28 06:48:39;;;;;;;17.75;6.75;;;;;;;;;;5045310;28;20088;-86
2022/04/28 06:51:05;;;;;;;7.68;4.93;;;;;;;;;;5090111;28;20043;-85
2022/04/28 06:53:31;;;;;;;7.97;4.78;;;;;;;;;;5073863;28;20408;-84
2022/04/28 06:59:24;;;;;;;;;;;;;;;;;;;;;
2022/04/28 07:01:50;;;;;;;12.35;5.22;;;;;;;;;;5071896;28;20044;-81
2022/04/28 07:04:16;;;;;;;8.80;5.28;;;;;;;;;;5119688;28;20119;-83
2022/04/28 07:07:27;;;;;;;15.40;9.00;;;;;;;;;;5104061;28;20024;-85
2022/04/28 07:12:46;;;;;;;8.30;4.97;;;;;;;;;;5101997;22;20052;-82
2022/04/28 07:15:11;;;;;;;7.32;4.53;;;;;;;;;;5102335;28;20020;-84
2022/04/28 07:17:58;;;;;;;7.15;4.35;;;;;;;;;;5049841;28;20342;-85
2022/04/28 07:26:13;;;;;;;5.85;4.53;;;;;;;;;;5266717;22;20461;-80
2022/04/28 07:28:42;;;;;;;11.90;7.20;;;;;;;;;;5114231;28;20084;-80
2022/04/28 07:31:20;;;;;;;27.08;17.20;;;;;;;;;;5117752;28;20019;-81
2022/04/28 07:33:45;;;;;;;16.95;10.60;;;;;;;;;;5098173;28;20059;-85
2022/04/28 07:36:19;;;;;;;35.70;19.83;;;;;;;;;;5116807;27;20320;-84
2022/04/28 07:38:47;;;;;;;24.17;14.85;;;;;;;;;;5108403;28;20032;-80
2022/04/28 07:41:14;;;;;;;27.75;16.13;;;;;;;;;;5113643;28;20080;-82
2022/04/28 07:43:39;;;;;;;31.42;16.55;;;;;;;;;;5118824;28;20028;-84
2022/04/28 07:46:05;;;;;;;28.90;15.02;;;;;;;;;;5110517;28;20037;-84
2022/04/28 07:48:33;;;;;;;21.42;10.70;;;;;;;;;;5128355;28;20023;-82
2022/04/28 07:50:59;;;;;;;27.98;14.93;;;;;;;;;;5128872;27;20118;-83
2022/04/28 07:53:24;;;;;;;21.77;11.32;;;;;;;;;;5115111;28;20051;-83
2022/04/28 07:58:34;;;;;;;18.75;11.30;;;;;;;;;;5106866;28;20035;-81
2022/04/28 08:01:06;;;;;;;17.63;12.18;;;;;;;;;;5112687;28;20087;-82
2022/04/28 08:03:31;;;;;;;20.63;11.77;;;;;;;;;;5100038;28;20039;-80
2022/04/28 08:06:01;;;;;;;18.65;12.15;;;;;;;;;;5110493;28;20031;-86
2022/04/28 08:08:27;;;;;;;;;;;;;;;;;;5104909;28;20032;-84
2022/04/28 08:10:53;;;;;;;30.35;15.52;;;;;;;;;;5118473;28;19950;-82
2022/04/28 08:13:30;;;;;;;43.90;26.65;;;;;;;;;;5119947;28;20035;-82
2022/04/28 08:15:58;;;;;;;23.25;12.48;;;;;;;;;;5118477;28;20130;-84
2022/04/28 08:18:31;;;;;;;28.58;15.90;;;;;;;;;;5116193;28;20376;-82
2022/04/28 08:24:08;;;;;;;19.98;11.43;;;;;;;;;;5104753;28;20083;-84
2022/04/28 08:26:34;;;;;;;16.55;10.32;;;;;;;;;;5079819;28;20557;-84
2022/04/28 08:28:59;;;;;;;16.05;10.07;;;;;;;;;;5109038;28;20059;-82
2022/04/28 08:31:26;;;;;;;14.77;9.05;;;;;;;;;;5111921;28;20103;-81
2022/04/28 08:34:01;;;;;;;25.60;16.27;;;;;;;;;;5125542;27;20104;-83
2022/04/28 08:40:22;;;;;;;31.73;17.02;;;;;;;;;;5037528;28;20033;-79
2022/04/28 08:42:51;;;;;;;27.08;14.38;;;;;;;;;;5090964;28;20176;-82
2022/04/28 08:48:12;;;;;;;56.10;30.77;;;;;;;;;;5050627;28;20051;-81
2022/04/28 08:50:44;;;;;;;25.67;14.32;;;;;;;;;;5052992;28;20029;-83
2022/04/28 08:53:22;;;;;;;30.20;16.75;;;;;;;;;;5016861;28;20099;-82
2022/04/28 08:55:57;;;;;;;25.10;13.52;;;;;;;;;;5035242;28;20116;-82
2022/04/28 09:00:57;;;;;;;18.63;11.30;;;;;;;;;;5452068;22;20044;-83
2022/04/28 09:03:29;;;;;;;27.75;14.75;;;;;;;;;;5097559;28;20028;-82
2022/04/28 09:09:53;;;;;;;20.50;12.15;;;;;;;;;;5064608;28;20085;-82
2022/04/28 09:12:30;;;;;;;17.45;10.57;;;;;;;;;;5062219;28;20043;-82
2022/04/28 09:15:15;;;;;;;28.75;14.50;;;;;;;;;;5074250;28;20025;-82
2022/04/28 09:18:00;;;;;;;30.33;17.63;;;;;;;;;;5077878;28;20032;-83
2022/04/28 09:37:14;;;;;;;27.52;14.45;;;;;;;;;;4958937;26;20044;-83
2022/04/28 09:42:30;;;;;;;27.10;15.32;;;;;;;;;;5071039;28;20040;-82
2022/04/28 09:44:58;;;;;;;28.58;14.68;;;;;;;;;;5075767;28;20381;-84
2022/04/28 09:47:24;;;;;;;30.92;17.92;;;;;;;;;;5082489;28;20029;-84
2022/04/28 09:49:55;;;;;;;19.95;12.80;;;;;;;;;;5057644;28;20419;-86
2022/04/28 09:52:31;;;;;;;25.98;12.68;;;;;;;;;;5080265;28;20040;-82
2022/04/28 09:55:16;;;;;;;23.15;13.80;;;;;;;;;;5078976;28;20040;-83
2022/04/28 09:57:53;;;;;;;;;;;;;;;;;;;;;
2022/04/28 10:00:36;;;;;;;19.40;13.23;;;;;;;;;;4990841;28;20039;-82
2022/04/28 10:03:11;;;;;;;24.92;15.40;;;;;;;;;;4989833;28;20121;-86
2022/04/28 10:05:49;;;;;;;37.00;20.25;;;;;;;;;;4987828;28;20029;-81
2022/04/28 10:09:17;;;;;;;24.23;13.60;;;;;;;;;;5001954;28;20116;-84
2022/04/28 10:11:47;;;;;;;20.10;12.55;;;;;;;;;;4953334;28;20520;-84
2022/04/28 10:14:22;;;;;;;19.77;12.63;;;;;;;;;;4975442;28;20069;-84
2022/04/28 10:17:09;;;;;;;74.88;38.92;;;;;;;;;;4973702;28;20194;-82
2022/04/28 10:19:35;;;;;;;29.88;17.15;;;;;;;;;;4986771;28;20040;-78
2022/04/28 10:22:07;;;;;;;24.33;13.20;;;;;;;;;;5053529;28;20532;-79
2022/04/28 10:32:58;;;;;;;40.15;22.15;;;;;;;;;;5060835;28;20113;-77
2022/04/28 10:35:43;;;;;;;22.45;13.18;;;;;;;;;;5071825;28;20044;-78
2022/04/28 10:38:26;;;;;;;24.08;13.10;;;;;;;;;;5053667;28;20124;-77
2022/04/28 10:41:08;;;;;;;25.13;15.07;;;;;;;;;;5068754;28;20442;-78
2022/04/28 10:43:34;;;;;;;25.77;14.38;;;;;;;;;;5054112;28;20210;-78
2022/04/28 10:46:09;;;;;;;21.65;12.60;;;;;;;;;;5061693;28;20051;-80
2022/04/28 10:48:42;;;;;;;30.27;15.75;;;;;;;;;;5058135;28;20055;-80
2022/04/28 10:51:11;;;;;;;32.88;16.15;;;;;;;;;;5053818;28;20107;-80
2022/04/28 10:53:58;;;;;;;24.23;14.85;;;;;;;;;;5052686;28;20044;-80
2022/04/28 10:56:52;;;;;;;19.48;11.68;;;;;;;;;;5054443;28;20017;-80
2022/04/28 10:59:34;;;;;;;19.55;11.75;;;;;;;;;;5053293;28;20127;-79
2022/04/28 11:02:15;;;;;;;35.78;18.73;;;;;;;;;;5054845;28;20033;-80
2022/04/28 11:04:42;;;;;;;19.33;11.50;;;;;;;;;;5052221;28;20033;-78
2022/04/28 11:07:19;;;;;;;20.48;12.10;;;;;;;;;;5063725;28;20020;-78
2022/04/28 11:09:55;;;;;;;31.13;14.98;;;;;;;;;;5038931;28;20044;-83
2022/04/28 11:12:38;;;;;;;33.92;17.95;;;;;;;;;;5054611;28;20021;-81
2022/04/28 11:15:06;;;;;;;27.40;13.70;;;;;;;;;;5055126;28;20025;-82
2022/04/28 11:17:38;;;;;;;23.90;12.90;;;;;;;;;;5034699;28;20025;-81
2022/04/28 11:20:07;;;;;;;19.88;11.60;;;;;;;;;;5038220;28;20060;-80
2022/04/28 11:22:33;;;;;;;20.52;11.30;;;;;;;;;;5033406;28;20403;-80
2022/04/28 11:25:09;;;;;;;18.70;11.32;;;;;;;;;;5034857;28;20078;-80
2022/04/28 11:28:11;;;;;;;26.05;13.90;;;;;;;;;;5064206;28;20021;-82
2022/04/28 11:30:41;;;;;;;21.45;10.85;;;;;;;;;;5055323;28;20086;-80
2022/04/28 11:33:09;;;;;;;55.30;23.75;;;;;;;;;;5055361;28;20090;-80
2022/04/28 11:35:38;;;;;;;42.58;22.13;;;;;;;;;;5049847;28;20201;-81
2022/04/28 11:38:12;;;;;;;25.17;10.32;;;;;;;;;;5049798;28;20415;-82
2022/04/28 11:40:44;;;;;;;14.88;9.07;;;;;;;;;;5032867;28;20454;-82
2022/04/28 11:43:14;;;;;;;23.15;12.23;;;;;;;;;;5049265;28;20026;-81
2022/04/28 11:45:43;;;;;;;57.40;29.45;;;;;;;;;;5016505;28;20424;-81
2022/04/28 11:48:56;;;;;;;18.75;11.18;;;;;;;;;;5031221;28;20492;-82
2022/04/28 11:51:24;;;;;;;34.25;18.75;;;;;;;;;;5020216;28;20046;-82
2022/04/28 11:54:26;;;;;;;36.35;19.05;;;;;;;;;;5034529;28;20045;-83
2022/04/28 11:57:13;;;;;;;68.03;34.35;;;;;;;;;;5035006;28;20029;-80
2022/04/28 11:59:40;;;;;;;39.72;20.67;;;;;;;;;;5017259;28;20360;-81
2022/04/28 12:02:11;;;;;;;22.13;11.77;;;;;;;;;;5033274;28;20083;-82
2022/04/28 12:04:41;;;;;;;23.00;12.43;;;;;;;;;;5016021;28;20297;-81
2022/04/28 12:07:17;;;;;;;;;;;;;;;;;;5037626;28;20071;-82
2022/04/28 12:15:28;;;;;;;21.83;13.30;;;;;;;;;;5016388;28;20475;-87
2022/04/28 12:21:14;;;;;;;14.13;8.98;;;;;;;;;;5018384;28;20057;-87
2022/04/28 12:23:41;;;;;;;16.85;10.38;;;;;;;;;;5019473;28;20183;-89
2022/04/28 12:26:08;;;;;;;17.80;10.10;;;;;;;;;;5036745;28;20157;-88
2022/04/28 12:28:43;;;;;;;42.58;20.55;;;;;;;;;;5008270;28;20034;-87
2022/04/28 12:31:11;;;;;;;65.10;32.78;;;;;;;;;;5018098;28;20045;-87
2022/04/28 12:33:51;;;;;;;19.98;12.10;;;;;;;;;;5019927;28;20452;-87
2022/04/28 12:36:16;;;;;;;25.80;15.48;;;;;;;;;;5030060;28;20122;-86
2022/04/28 12:38:49;;;;;;;27.52;14.68;;;;;;;;;;5053165;28;20037;-87
2022/04/28 12:41:18;;;;;;;24.70;12.82;;;;;;;;;;5053565;28;20071;-86
2022/04/28 12:43:51;;;;;;;47.30;25.50;;;;;;;;;;5058992;28;20029;-86
2022/04/28 12:49:06;;;;;;;20.80;10.10;;;;;;;;;;5128752;22;20055;-88
2022/04/28 12:51:52;;;;;;;30.08;17.75;;;;;;;;;;5077020;28;20035;-86
2022/04/28 12:54:22;;;;;;;57.97;31.80;;;;;;;;;;5083967;28;20035;-84
2022/04/28 12:56:57;;;;;;;32.13;17.75;;;;;;;;;;5047224;28;20028;-87
2022/04/28 12:59:27;;;;;;;29.58;15.25;;;;;;;;;;5065453;28;20032;-85
2022/04/28 13:01:53;;;;;;;;;;;;;;;;;;5079951;28;20543;-85
2022/04/28 13:04:22;;;;;;;26.85;14.80;;;;;;;;;;5079343;28;19916;-89
2022/04/28 13:06:47;;;;;;;28.40;15.98;;;;;;;;;;5080305;28;20115;-87
2022/04/28 13:09:26;;;;;;;34.70;19.73;;;;;;;;;;5074252;28;20028;-87
2022/04/28 13:11:55;;;;;;;31.77;16.88;;;;;;;;;;5048558;28;20035;-88
2022/04/28 13:17:04;;;;;;;47.70;25.25;;;;;;;;;;5123373;22;20087;-87
2022/04/28 13:19:29;;;;;;;31.38;17.00;;;;;;;;;;5098750;28;20046;-87
2022/04/28 13:21:55;;;;;;;26.77;14.88;;;;;;;;;;5114548;28;20067;-86
2022/04/28 13:24:20;;;;;;;28.90;16.70;;;;;;;;;;5098742;28;20443;-89
2022/04/28 13:26:48;;;;;;;28.35;15.13;;;;;;;;;;5097701;28;20045;-88
2022/04/28 13:29:14;;;;;;;29.33;15.57;;;;;;;;;;5116624;28;20280;-86
2022/04/28 13:31:40;;;;;;;40.20;21.55;;;;;;;;;;5081921;28;20117;-86
2022/04/28 13:34:05;;;;;;;25.15;14.32;;;;;;;;;;5113891;22;20474;-88
2022/04/28 13:36:35;;;;;;;65.03;32.40;;;;;;;;;;5073703;28;20036;-87
2022/04/28 13:39:01;;;;;;;;;;;;;;;;;;5074444;28;20032;-88
2022/04/28 13:41:27;;;;;;;13.90;9.05;;;;;;;;;;5059348;28;19982;-89
2022/04/28 13:43:55;;;;;;;19.60;12.15;;;;;;;;;;5073365;28;20066;-86
2022/04/28 13:46:21;;;;;;;45.97;23.15;;;;;;;;;;5040928;28;20024;-87
2022/04/28 13:48:46;;;;;;;26.67;13.23;;;;;;;;;;5059637;28;20047;-88
2022/04/28 13:51:12;;;;;;;41.28;20.95;;;;;;;;;;5081535;28;20052;-88
2022/04/28 13:53:37;;;;;;;36.55;17.27;;;;;;;;;;5076475;28;20032;-84
2022/04/28 13:56:21;;;;;;;36.03;19.98;;;;;;;;;;5077578;28;20074;-86
2022/04/28 13:58:47;;;;;;;38.85;20.05;;;;;;;;;;5076725;28;20434;-86
2022/04/28 14:01:16;;;;;;;49.88;27.55;;;;;;;;;;5060494;28;20055;-86
2022/04/28 14:03:44;;;;;;;44.83;22.92;;;;;;;;;;5064598;28;20072;-85
2022/04/28 14:06:10;;;;;;;42.00;22.00;;;;;;;;;;5062717;28;20406;-85
2022/04/28 14:08:36;;;;;;;36.50;19.17;;;;;;;;;;5080234;28;20047;-87
2022/04/28 14:11:04;;;;;;;33.28;16.40;;;;;;;;;;5098382;28;20036;-84
2022/04/28 14:13:29;;;;;;;30.45;14.90;;;;;;;;;;5079961;28;20040;-85
2022/04/28 14:15:58;;;;;;;33.05;15.35;;;;;;;;;;5077765;28;20037;-86
2022/04/28 14:18:24;;;;;;;42.42;19.13;;;;;;;;;;5061570;28;20440;-87
2022/04/28 14:20:50;;;;;;;45.25;22.27;;;;;;;;;;5044990;28;20139;-86
2022/04/28 14:23:16;;;;;;;65.38;30.38;;;;;;;;;;5078472;28;20036;-87
2022/04/28 14:25:41;;;;;;;30.33;15.20;;;;;;;;;;5080142;28;20036;-85
2022/04/28 14:28:16;;;;;;;32.13;14.75;;;;;;;;;;5045838;28;20025;-86
2022/04/28 14:30:44;;;;;;;33.92;16.25;;;;;;;;;;5064521;28;20020;-87
2022/04/28 14:33:10;;;;;;;37.65;16.73;;;;;;;;;;5060857;28;20452;-88
2022/04/28 14:35:38;;;;;;;29.88;14.35;;;;;;;;;;5043003;28;20044;-88
2022/04/28 14:41:58;;;;;;;27.33;14.07;;;;;;;;;;5075894;28;20106;-86
2022/04/28 14:44:24;;;;;;;31.70;13.88;;;;;;;;;;5060626;28;20074;-87
2022/04/28 14:46:50;;;;;;;26.25;14.05;;;;;;;;;;5093209;22;20098;-88
2022/04/28 14:52:23;;;;;;;28.00;14.90;;;;;;;;;;5085290;28;20082;-87
2022/04/28 14:54:53;;;;;;;24.65;14.00;;;;;;;;;;5076285;28;20028;-87
2022/04/28 14:57:42;;;;;;;26.38;13.65;;;;;;;;;;5075732;28;20081;-88
2022/04/28 15:00:28;;;;;;;28.80;15.57;;;;;;;;;;5060406;28;20082;-87
2022/04/28 15:02:54;;;;;;;26.13;14.02;;;;;;;;;;5075812;28;20449;-88
2022/04/28 15:05:28;;;;;;;26.42;13.85;;;;;;;;;;5077625;28;20091;-90
2022/04/28 15:07:54;;;;;;;27.23;14.55;;;;;;;;;;5075239;28;20517;-88
2022/04/28 15:10:19;;;;;;;31.08;13.63;;;;;;;;;;5062348;28;20134;-87
2022/04/28 15:12:46;;;;;;;28.67;14.73;;;;;;;;;;5059455;28;20036;-86
2022/04/28 15:15:14;;;;;;;26.85;13.80;;;;;;;;;;5077879;28;20028;-86
2022/04/28 15:17:46;;;;;;;28.05;14.63;;;;;;;;;;5078986;28;20028;-89
2022/04/28 15:20:18;;;;;;;27.73;13.48;;;;;;;;;;5044046;28;20029;-87
2022/04/28 15:22:44;;;;;;;27.63;13.77;;;;;;;;;;5060694;28;20050;-87
2022/04/28 15:35:53;;;;;;;25.10;12.38;;;;;;;;;;5077841;28;20038;-84
2022/04/28 15:41:01;;;;;;;24.55;12.15;;;;;;;;;;5101095;22;20520;-84
2022/04/28 15:43:26;;;;;;;23.77;12.75;;;;;;;;;;5082902;22;20060;-85
2022/04/28 15:48:27;;;;;;;24.58;13.38;;;;;;;;;;5133786;22;20040;-85
2022/04/28 16:14:21;;;;;;;17.40;9.77;;;;;;;;;;5316444;22;20318;-84
2022/04/28 16:16:51;;;;;;;18.42;9.85;;;;;;;;;;5087141;22;20045;-85
2022/04/28 16:20:20;;;;;;;;;;;;;;;;;;;;;
2022/04/28 16:22:46;;;;;;;20.52;11.43;;;;;;;;;;5062746;22;20494;-85
2022/04/28 16:40:10;;;;;;;18.95;10.38;;;;;;;;;;5742122;22;20264;-85
2022/04/28 16:45:55;;;;;;;18.63;10.48;;;;;;;;;;5086348;22;20149;-86
2022/04/28 16:48:20;;;;;;;23.05;10.23;;;;;;;;;;5055471;28;20446;-86
2022/04/28 16:57:49;;;;;;;20.85;9.80;;;;;;;;;;5432356;22;20059;-84
2022/04/28 17:06:23;;;;;;;18.23;9.30;;;;;;;;;;5074358;28;20032;-83
2022/04/28 17:08:49;;;;;;;17.27;9.60;;;;;;;;;;5074025;28;20373;-84
2022/04/28 17:11:16;;;;;;;16.77;8.95;;;;;;;;;;5073955;28;20032;-84
2022/04/28 17:13:42;;;;;;;18.42;10.13;;;;;;;;;;5072809;28;20389;-82
2022/04/28 17:16:07;;;;;;;20.30;10.45;;;;;;;;;;5073013;28;20029;-86
2022/04/28 17:18:33;;;;;;;20.50;10.60;;;;;;;;;;5073173;28;20090;-85
2022/04/28 17:20:58;;;;;;;18.70;9.70;;;;;;;;;;5056380;28;20032;-86
2022/04/28 17:23:24;;;;;;;19.30;10.50;;;;;;;;;;5074146;28;20076;-85
2022/04/28 17:25:49;;;;;;;20.75;10.07;;;;;;;;;;5074088;28;20411;-86
2022/04/28 17:28:15;;;;;;;20.52;10.73;;;;;;;;;;5073169;28;20061;-82
2022/04/28 17:30:41;;;;;;;21.98;10.02;;;;;;;;;;5073116;28;20450;-82
2022/04/28 17:33:06;;;;;;;19.95;10.00;;;;;;;;;;5089696;28;20454;-82
2022/04/28 17:35:32;;;;;;;22.17;10.45;;;;;;;;;;5076037;28;20040;-81
2022/04/28 17:37:57;;;;;;;22.67;10.30;;;;;;;;;;5078877;28;20028;-85
2022/04/28 17:40:23;;;;;;;18.92;10.52;;;;;;;;;;5077499;28;20063;-84
2022/04/28 17:42:48;;;;;;;25.98;11.38;;;;;;;;;;5076760;28;20173;-88
2022/04/28 17:45:14;;;;;;;21.98;10.40;;;;;;;;;;5077741;28;20029;-86
2022/04/28 17:47:39;;;;;;;22.77;10.45;;;;;;;;;;5078395;28;20039;-84
2022/04/28 17:50:06;;;;;;;17.77;9.77;;;;;;;;;;5078174;28;20362;-84
2022/04/28 17:52:31;;;;;;;20.98;10.75;;;;;;;;;;5093205;28;20020;-84
2022/04/28 18:00:25;;;;;;;22.98;10.43;;;;;;;;;;5076727;28;20081;-86